Terminal Aerodrome Forecast
Issued by NWS Corpus Christi, TX

Home | Current Version | Previous Version | Text Only | Print | Product List | Glossary On
Versions: 1 2 3 4 5 6 7 8 9 10 11 12 13 14 15 16
000
FTUS44 KCRP 260700 AAA
TAFCRP
TAF AMD
KCRP 260739Z 2608/2706 17015G23KT P6SM BKN028 OVC040
     FM261000 17014KT P6SM BKN020 OVC035
     FM261200 16006KT P6SM OVC020
     FM261700 17015G22KT P6SM BKN020
     FM270200 16008KT P6SM BKN020=

USA.gov is the U.S. government's official web portal to all federal, state and local government web resources and services.